Time;durP1;ratioP1;P1;durP2;ratioP2;P2;SDS_P1;SDS_P2;PMS_P1;PMS_P2;Temp;Humidity;BMP_temperature;BMP_pressure;BME280_temperature;BME280_humidity;BME280_pressure;Samples;Min_cycle;Max_cycle;Signal;HPM_P1;HPM_P2
2023/10/13 00:01:25;;;;;;;0.10;0.10;;;16.90;99.90;;;;;;4975239;28;20282;-81
2023/10/13 00:03:52;;;;;;;0.10;0.10;;;16.90;99.90;;;;;;4959692;28;20204;-81
2023/10/13 00:06:18;;;;;;;0.10;0.10;;;16.90;99.90;;;;;;4960531;28;20557;-82
2023/10/13 00:08:44;;;;;;;0.10;0.10;;;16.90;99.90;;;;;;4959140;28;20184;-81
2023/10/13 00:11:15;;;;;;;0.10;0.10;;;16.90;99.90;;;;;;4958852;28;20192;-82
2023/10/13 00:13:50;;;;;;;0.10;0.10;;;16.90;99.90;;;;;;4975874;28;20300;-82
2023/10/13 00:16:28;;;;;;;0.10;0.10;;;16.90;99.90;;;;;;4959454;28;20184;-81
2023/10/13 00:18:57;;;;;;;0.10;0.10;;;16.90;99.90;;;;;;4960260;28;20275;-81
2023/10/13 00:21:31;;;;;;;0.10;0.10;;;16.90;99.90;;;;;;4959104;28;20277;-81
2023/10/13 00:23:59;;;;;;;0.10;0.10;;;16.90;99.90;;;;;;4958854;28;20694;-82
2023/10/13 00:26:30;;;;;;;0.10;0.10;;;16.90;99.90;;;;;;4957656;28;20252;-81
2023/10/13 00:29:15;;;;;;;0.10;0.10;;;16.80;99.90;;;;;;4959896;28;20173;-81
2023/10/13 00:31:42;;;;;;;0.10;0.10;;;16.80;99.90;;;;;;4959867;28;20201;-81
2023/10/13 00:39:37;;;;;;;0.10;0.10;;;16.70;99.90;;;;;;4961150;28;20216;-81
2023/10/13 00:42:07;;;;;;;0.10;0.10;;;16.50;99.90;;;;;;4957979;28;20189;-81
2023/10/13 00:44:48;;;;;;;0.10;0.10;;;16.30;99.90;;;;;;4959433;28;20626;-82
2023/10/13 00:47:47;;;;;;;0.10;0.10;;;16.10;99.90;;;;;;4959850;28;20232;-81
2023/10/13 00:50:15;;;;;;;0.10;0.10;;;16.00;99.90;;;;;;4958071;28;20189;-81
2023/10/13 00:52:46;;;;;;;0.10;0.10;;;15.90;99.90;;;;;;4959037;28;20351;-81
2023/10/13 00:55:14;;;;;;;0.10;0.10;;;16.00;99.90;;;;;;4958723;28;20208;-81
2023/10/13 00:57:40;;;;;;;0.10;0.10;;;16.10;99.90;;;;;;4958985;28;20267;-81
2023/10/13 01:00:19;;;;;;;0.10;0.10;;;16.10;99.90;;;;;;4974673;28;20240;-81
2023/10/13 01:02:56;;;;;;;0.10;0.10;;;16.00;99.90;;;;;;4944335;28;20200;-81
2023/10/13 01:05:26;;;;;;;0.10;0.10;;;16.00;99.90;;;;;;4960218;28;20223;-81
2023/10/13 01:07:54;;;;;;;0.10;0.10;;;15.90;99.90;;;;;;4959680;28;20196;-81
2023/10/13 01:10:25;;;;;;;0.10;0.10;;;15.90;99.90;;;;;;4957143;28;20568;-81
2023/10/13 01:12:52;;;;;;;0.10;0.10;;;15.90;99.90;;;;;;4958262;28;20970;-81
2023/10/13 01:15:20;;;;;;;0.10;0.10;;;15.90;99.90;;;;;;4958766;28;20197;-81
2023/10/13 01:17:46;;;;;;;0.10;0.10;;;16.00;99.90;;;;;;4958767;28;20183;-81
2023/10/13 01:20:24;;;;;;;0.10;0.10;;;16.10;99.90;;;;;;4958767;28;20548;-81
2023/10/13 01:22:56;;;;;;;0.10;0.10;;;16.10;99.90;;;;;;4958081;28;20556;-81
2023/10/13 01:25:28;;;;;;;0.10;0.10;;;16.30;99.90;;;;;;4991076;28;20287;-82
2023/10/13 01:27:54;;;;;;;0.10;0.10;;;16.40;99.90;;;;;;4961683;28;20572;-81
2023/10/13 01:30:24;;;;;;;0.10;0.10;;;16.50;99.90;;;;;;4962206;28;20189;-81
2023/10/13 01:32:51;;;;;;;0.10;0.10;;;16.60;99.90;;;;;;4961191;28;20312;-81
2023/10/13 01:35:19;;;;;;;0.10;0.10;;;16.60;99.90;;;;;;4964023;28;20196;-81
2023/10/13 01:37:45;;;;;;;0.10;0.10;;;16.70;99.90;;;;;;4962186;28;20658;-81
2023/10/13 01:40:12;;;;;;;0.10;0.10;;;16.70;99.90;;;;;;4961888;28;20530;-81
2023/10/13 01:42:39;;;;;;;0.10;0.10;;;16.70;99.90;;;;;;4963162;28;20197;-81
2023/10/13 01:45:05;;;;;;;0.10;0.10;;;16.70;99.90;;;;;;4961983;28;20396;-81
2023/10/13 01:47:33;;;;;;;0.10;0.10;;;16.60;99.90;;;;;;4978361;28;20189;-81
2023/10/13 01:50:06;;;;;;;0.10;0.10;;;16.40;99.90;;;;;;4960845;28;20192;-81
2023/10/13 01:52:32;;;;;;;0.10;0.10;;;16.30;99.90;;;;;;4961916;28;20211;-80
2023/10/13 01:55:01;;;;;;;0.10;0.10;;;16.10;99.90;;;;;;4960811;28;20197;-81
2023/10/13 01:57:28;;;;;;;0.10;0.10;;;16.00;99.90;;;;;;4961191;28;20203;-82
2023/10/13 01:59:55;;;;;;;0.10;0.10;;;16.00;99.90;;;;;;4960966;28;20192;-81
2023/10/13 02:02:29;;;;;;;0.10;0.10;;;15.90;99.90;;;;;;4963388;28;20251;-81
2023/10/13 02:05:00;;;;;;;0.10;0.10;;;15.90;99.90;;;;;;4962872;28;20227;-81
2023/10/13 02:07:34;;;;;;;0.10;0.10;;;15.90;99.90;;;;;;4963302;28;20172;-82
2023/10/13 02:10:03;;;;;;;0.10;0.10;;;15.90;99.90;;;;;;4962529;28;20259;-81
2023/10/13 02:12:36;;;;;;;0.10;0.10;;;15.90;99.90;;;;;;4960266;28;20208;-82
2023/10/13 02:15:04;;;;;;;0.10;0.10;;;15.90;99.90;;;;;;4960222;28;20204;-81
2023/10/13 02:17:39;;;;;;;0.10;0.10;;;15.90;99.90;;;;;;4960641;28;20187;-81
2023/10/13 02:20:08;;;;;;;0.07;0.07;;;16.00;99.90;;;;;;4962884;28;20181;-81
2023/10/13 02:22:35;;;;;;;0.10;0.10;;;16.10;99.90;;;;;;4960826;28;20185;-81
2023/10/13 02:25:05;;;;;;;0.10;0.10;;;16.10;99.90;;;;;;4961087;28;20208;-82
2023/10/13 02:27:40;;;;;;;0.10;0.10;;;16.00;99.90;;;;;;4961390;28;20196;-82
2023/10/13 02:30:12;;;;;;;0.10;0.10;;;15.90;99.90;;;;;;4962856;28;20189;-81
2023/10/13 02:32:40;;;;;;;0.10;0.10;;;15.90;99.90;;;;;;4962601;28;20209;-82
2023/10/13 02:35:08;;;;;;;0.10;0.10;;;15.80;99.90;;;;;;4962011;28;20710;-81
2023/10/13 02:37:35;;;;;;;0.10;0.10;;;15.70;99.90;;;;;;4960405;28;20664;-82
2023/10/13 02:40:01;;;;;;;0.10;0.10;;;15.70;99.90;;;;;;4960326;28;20282;-81
2023/10/13 02:42:27;;;;;;;0.10;0.10;;;15.70;99.90;;;;;;4962767;28;20685;-82
2023/10/13 02:44:57;;;;;;;0.10;0.10;;;15.70;99.90;;;;;;4961200;28;20236;-81
2023/10/13 02:47:24;;;;;;;0.10;0.10;;;15.70;99.90;;;;;;4962059;28;20177;-82
2023/10/13 02:49:49;;;;;;;0.10;0.10;;;15.70;99.90;;;;;;4960540;28;20565;-82
2023/10/13 02:52:15;;;;;;;0.10;0.10;;;15.90;99.90;;;;;;4961979;28;20216;-81
2023/10/13 02:54:50;;;;;;;0.10;0.10;;;16.10;99.90;;;;;;4961617;28;21085;-81
2023/10/13 02:57:16;;;;;;;0.10;0.10;;;16.20;99.90;;;;;;4977046;28;20192;-82
2023/10/13 03:00:12;;;;;;;0.10;0.10;;;16.30;99.90;;;;;;4959976;28;20189;-82
2023/10/13 03:02:31;;;;;;;0.10;0.10;;;16.30;99.90;;;;;;4962664;28;20200;-82
2023/10/13 03:04:59;;;;;;;0.10;0.10;;;16.20;99.90;;;;;;4960695;28;20212;-82
2023/10/13 03:07:28;;;;;;;0.10;0.10;;;16.30;99.90;;;;;;4961686;28;20191;-82
2023/10/13 03:09:57;;;;;;;0.10;0.10;;;16.30;99.90;;;;;;4960767;28;20212;-82
2023/10/13 03:12:33;;;;;;;0.10;0.10;;;16.30;99.90;;;;;;4961234;28;20207;-82
2023/10/13 03:15:12;;;;;;;0.10;0.10;;;16.30;99.90;;;;;;4960400;28;20259;-82
2023/10/13 03:17:43;;;;;;;0.10;0.10;;;16.30;99.90;;;;;;4961981;28;20216;-82
2023/10/13 03:20:14;;;;;;;0.10;0.10;;;16.30;99.90;;;;;;4959996;28;20268;-82
2023/10/13 03:22:39;;;;;;;0.10;0.10;;;16.30;99.90;;;;;;4979753;28;20192;-82
2023/10/13 03:25:07;;;;;;;0.10;0.10;;;16.10;99.90;;;;;;4977175;28;20228;-81
2023/10/13 03:28:00;;;;;;;0.10;0.10;;;16.10;99.90;;;;;;4980624;28;20195;-82
2023/10/13 03:30:35;;;;;;;0.10;0.10;;;16.00;99.90;;;;;;4979936;28;20173;-81
2023/10/13 03:33:12;;;;;;;0.10;0.10;;;15.90;99.90;;;;;;4980650;28;20212;-81
2023/10/13 03:35:40;;;;;;;0.10;0.10;;;15.90;99.90;;;;;;4972725;28;20214;-81
2023/10/13 03:38:16;;;;;;;0.10;0.10;;;15.90;99.90;;;;;;4968325;28;20193;-82
2023/10/13 03:40:48;;;;;;;0.10;0.10;;;15.90;99.90;;;;;;4966607;28;20209;-81
2023/10/13 03:43:16;;;;;;;0.10;0.10;;;15.80;99.90;;;;;;4967854;28;20177;-82
2023/10/13 03:45:48;;;;;;;0.10;0.10;;;15.70;99.90;;;;;;4969190;28;20219;-81
2023/10/13 03:51:33;;;;;;;0.10;0.10;;;15.80;99.90;;;;;;4967435;28;20180;-81
2023/10/13 03:53:52;;;;;;;0.10;0.10;;;15.80;99.90;;;;;;4963589;28;20263;-81
2023/10/13 03:56:28;;;;;;;0.10;0.10;;;15.80;99.90;;;;;;4966367;28;20192;-82
2023/10/13 03:59:00;;;;;;;0.10;0.10;;;15.80;99.90;;;;;;4965658;28;20189;-81
2023/10/13 04:01:32;;;;;;;0.10;0.10;;;15.90;99.90;;;;;;4965124;28;20185;-81
2023/10/13 04:04:04;;;;;;;0.10;0.10;;;15.90;99.90;;;;;;4966123;28;20248;-81
2023/10/13 04:17:28;;;;;;;0.10;0.10;;;16.10;99.90;;;;;;4964443;28;20200;-81
2023/10/13 04:36:13;;;;;;;0.10;0.10;;;16.10;99.90;;;;;;4966045;28;20287;-81
2023/10/13 04:41:37;;;;;;;0.10;0.10;;;16.10;99.90;;;;;;4965245;28;20189;-81
2023/10/13 04:49:28;;;;;;;0.10;0.10;;;15.90;99.90;;;;;;4964239;28;20196;-82
2023/10/13 04:51:59;;;;;;;0.10;0.10;;;15.80;99.90;;;;;;4962985;28;20239;-81
2023/10/13 06:29:56;;;;;;;0.10;0.10;;;16.80;99.90;;;;;;4961590;28;20250;-80
2023/10/13 06:32:25;;;;;;;0.10;0.10;;;16.90;99.90;;;;;;4959905;28;21102;-80
2023/10/13 06:34:58;;;;;;;0.10;0.10;;;17.00;99.90;;;;;;4953854;28;20202;-80
2023/10/13 06:39:56;;;;;;;0.10;0.10;;;17.20;99.90;;;;;;4960331;28;20181;-80
2023/10/13 06:42:28;;;;;;;0.10;0.10;;;17.30;99.90;;;;;;4958944;28;20614;-81
2023/10/13 06:44:55;;;;;;;0.10;0.10;;;17.40;99.90;;;;;;4961103;28;20220;-80
2023/10/13 06:47:21;;;;;;;0.10;0.10;;;17.40;99.90;;;;;;4958785;28;20189;-80
2023/10/13 06:49:51;;;;;;;0.10;0.10;;;17.50;99.90;;;;;;4953382;28;20196;-81
2023/10/13 06:52:17;;;;;;;0.10;0.10;;;17.60;99.90;;;;;;4962366;28;20235;-81
2023/10/13 06:54:43;;;;;;;0.10;0.10;;;17.70;99.90;;;;;;4960295;28;20899;-82
2023/10/13 06:57:20;;;;;;;0.10;0.10;;;17.80;99.90;;;;;;4960827;28;20303;-81
2023/10/13 06:59:46;;;;;;;0.10;0.10;;;17.80;99.90;;;;;;4957294;28;20813;-81
2023/10/13 07:02:21;;;;;;;0.10;0.10;;;17.70;99.90;;;;;;4961028;28;20237;-81
2023/10/13 07:04:56;;;;;;;0.10;0.10;;;17.90;99.90;;;;;;4957123;28;20231;-80
2023/10/13 07:07:23;;;;;;;0.10;0.10;;;17.90;99.90;;;;;;4962111;28;20181;-82
2023/10/13 07:09:55;;;;;;;0.10;0.10;;;18.00;99.90;;;;;;4957169;28;20244;-80
2023/10/13 07:12:26;;;;;;;0.10;0.10;;;18.00;99.90;;;;;;4957635;28;20198;-81
2023/10/13 07:14:53;;;;;;;0.10;0.10;;;18.10;99.90;;;;;;4955383;28;20208;-82
2023/10/13 07:17:25;;;;;;;0.10;0.10;;;18.20;99.90;;;;;;4972421;28;20192;-82
2023/10/13 07:20:05;;;;;;;0.10;0.10;;;18.30;99.90;;;;;;4958529;28;20177;-82
2023/10/13 07:22:39;;;;;;;0.10;0.10;;;18.40;99.90;;;;;;4961627;28;20886;-82
2023/10/13 07:25:06;;;;;;;0.10;0.10;;;18.50;99.90;;;;;;4960210;28;20232;-82
2023/10/13 07:27:35;;;;;;;0.10;0.10;;;18.60;99.90;;;;;;4961650;28;20731;-82
2023/10/13 07:30:14;;;;;;;0.10;0.10;;;18.70;99.90;;;;;;4962494;28;20184;-82
2023/10/13 07:32:46;;;;;;;0.10;0.10;;;18.70;99.90;;;;;;4958888;28;20204;-82
2023/10/13 07:35:17;;;;;;;0.10;0.10;;;18.80;99.90;;;;;;4976624;28;20200;-82
2023/10/13 07:37:44;;;;;;;0.10;0.10;;;19.00;99.90;;;;;;4958279;28;20181;-81
2023/10/13 07:43:00;;;;;;;0.10;0.10;;;19.20;99.90;;;;;;4962978;28;20644;-82
2023/10/13 07:45:35;;;;;;;0.10;0.10;;;19.20;99.90;;;;;;4962641;28;20232;-82
2023/10/13 07:48:07;;;;;;;0.10;0.10;;;19.30;99.90;;;;;;4962415;28;20211;-81
2023/10/13 07:50:33;;;;;;;0.10;0.10;;;19.30;99.90;;;;;;4961645;28;20242;-82
2023/10/13 07:53:04;;;;;;;0.10;0.10;;;19.30;99.90;;;;;;4960141;28;20579;-81
2023/10/13 07:55:33;;;;;;;0.10;0.10;;;19.30;99.90;;;;;;4960984;28;20219;-81
2023/10/13 07:57:59;;;;;;;0.10;0.10;;;19.30;99.90;;;;;;4962105;28;20205;-81
2023/10/13 08:08:39;;;;;;;0.10;0.10;;;19.80;99.90;;;;;;4962543;28;20651;-81
2023/10/13 08:13:59;;;;;;;0.10;0.10;;;19.90;99.90;;;;;;4961841;28;20192;-81
2023/10/13 08:19:17;;;;;;;0.10;0.10;;;20.00;99.90;;;;;;4961215;28;20202;-81
2023/10/13 08:48:07;;;;;;;0.10;0.10;;;20.30;99.90;;;;;;4958108;28;20352;-81
2023/10/13 08:50:52;;;;;;;0.10;0.10;;;20.40;99.90;;;;;;4958318;28;20196;-81
2023/10/13 08:53:33;;;;;;;0.10;0.10;;;20.90;99.90;;;;;;4958178;28;21197;-80
2023/10/13 08:56:15;;;;;;;0.10;0.10;;;21.50;99.90;;;;;;4958089;28;20208;-82
2023/10/13 09:09:27;;;;;;;0.10;0.10;;;21.70;99.90;;;;;;4960212;28;20212;-82
2023/10/13 09:12:11;;;;;;;0.10;0.10;;;21.70;99.90;;;;;;4957374;28;20216;-82
2023/10/13 09:14:42;;;;;;;0.10;0.10;;;21.80;99.90;;;;;;4960919;28;20244;-81
2023/10/13 09:17:11;;;;;;;0.10;0.10;;;21.70;99.90;;;;;;4961217;28;20185;-82
2023/10/13 09:19:56;;;;;;;0.10;0.10;;;21.90;99.90;;;;;;4957869;28;20206;-81
2023/10/13 09:22:28;;;;;;;0.10;0.10;;;22.00;99.90;;;;;;4959015;28;20724;-82
2023/10/13 09:24:58;;;;;;;0.10;0.10;;;22.30;99.90;;;;;;4957811;28;20216;-82
2023/10/13 09:27:26;;;;;;;0.10;0.10;;;22.50;99.90;;;;;;4957266;28;20193;-82
2023/10/13 09:30:10;;;;;;;0.10;0.10;;;22.40;99.90;;;;;;4960435;28;20285;-81
2023/10/13 09:32:50;;;;;;;0.10;0.10;;;22.40;99.90;;;;;;4956525;28;20223;-81
2023/10/13 09:35:18;;;;;;;0.10;0.10;;;22.90;99.90;;;;;;4957344;28;20575;-81
2023/10/13 09:37:47;;;;;;;0.10;0.10;;;23.00;99.90;;;;;;4955445;28;20201;-81
2023/10/13 09:40:38;;;;;;;0.10;0.10;;;23.10;99.90;;;;;;4957950;28;20212;-81
2023/10/13 09:43:08;;;;;;;0.10;0.10;;;23.30;99.90;;;;;;4957374;28;20208;-81
2023/10/13 09:45:43;;;;;;;0.10;0.10;;;23.40;99.90;;;;;;4960355;28;20337;-82
2023/10/13 09:48:21;;;;;;;0.10;0.10;;;23.60;99.90;;;;;;4961798;28;20679;-82
2023/10/13 09:50:48;;;;;;;0.10;0.10;;;23.60;99.90;;;;;;4960825;28;20620;-82
2023/10/13 09:53:17;;;;;;;0.10;0.10;;;23.60;99.90;;;;;;4961985;28;20252;-82
2023/10/13 09:55:50;;;;;;;0.10;0.10;;;23.60;99.90;;;;;;4965303;28;20205;-82
2023/10/13 09:58:17;;;;;;;0.10;0.10;;;23.80;99.90;;;;;;4961943;28;20191;-82
2023/10/13 10:00:49;;;;;;;0.10;0.10;;;23.70;99.90;;;;;;4975551;28;20193;-81
2023/10/13 10:03:15;;;;;;;0.10;0.10;;;23.60;99.90;;;;;;4964585;28;20282;-82
2023/10/13 10:06:03;;;;;;;0.10;0.10;;;23.60;99.90;;;;;;4963461;28;20230;-82
2023/10/13 10:08:38;;;;;;;0.10;0.10;;;23.40;99.90;;;;;;4960678;28;20564;-82
2023/10/13 10:11:04;;;;;;;0.10;0.10;;;23.80;99.90;;;;;;4977780;28;20196;-82
2023/10/13 10:13:58;;;;;;;0.03;0.03;;;23.80;99.90;;;;;;4960304;28;20681;-82
2023/10/13 10:16:49;;;;;;;0.10;0.10;;;23.70;99.90;;;;;;4961320;28;20185;-82
2023/10/13 10:19:14;;;;;;;0.10;0.10;;;23.50;99.90;;;;;;4959726;28;20200;-82
2023/10/13 10:21:41;;;;;;;0.10;0.10;;;23.50;99.90;;;;;;4960907;28;20192;-82
2023/10/13 10:24:31;;;;;;;0.10;0.10;;;23.40;99.90;;;;;;4960832;28;20181;-82
2023/10/13 10:26:57;;;;;;;0.10;0.10;;;23.60;99.90;;;;;;4961468;28;20169;-82
2023/10/13 10:29:22;;;;;;;0.10;0.10;;;23.70;99.90;;;;;;4963077;28;20191;-82
2023/10/13 10:31:49;;;;;;;0.10;0.10;;;23.50;99.90;;;;;;4960386;28;20236;-82
2023/10/13 10:34:24;;;;;;;0.10;0.10;;;23.50;99.90;;;;;;4957979;28;20668;-82
2023/10/13 10:36:54;;;;;;;0.10;0.10;;;23.60;99.90;;;;;;4959332;28;20212;-81
2023/10/13 10:39:21;;;;;;;0.10;0.10;;;23.80;99.90;;;;;;4960352;28;20173;-81
2023/10/13 10:41:53;;;;;;;0.10;0.10;;;24.30;99.90;;;;;;4964150;28;20228;-81
2023/10/13 10:44:34;;;;;;;0.10;0.10;;;24.70;99.90;;;;;;4961010;28;20631;-81
2023/10/13 10:47:19;;;;;;;0.10;0.10;;;25.00;99.90;;;;;;4961484;28;20176;-81
2023/10/13 10:49:47;;;;;;;0.10;0.10;;;25.60;99.90;;;;;;4962128;28;20216;-81
2023/10/13 10:52:18;;;;;;;0.10;0.10;;;25.50;99.90;;;;;;4962981;28;20259;-81
2023/10/13 10:54:44;;;;;;;0.10;0.10;;;25.80;99.90;;;;;;4959912;28;20209;-83
2023/10/13 10:57:17;;;;;;;0.10;0.10;;;25.60;99.90;;;;;;4958925;28;20189;-83
2023/10/13 10:59:43;;;;;;;0.10;0.10;;;25.70;99.90;;;;;;4960892;28;20215;-82
2023/10/13 11:02:15;;;;;;;0.10;0.10;;;25.80;99.90;;;;;;4972581;28;20189;-82
2023/10/13 11:04:50;;;;;;;0.10;0.10;;;25.80;99.90;;;;;;4962080;28;20263;-83
2023/10/13 11:07:23;;;;;;;0.10;0.10;;;26.00;99.90;;;;;;4960336;28;20275;-82
2023/10/13 11:09:52;;;;;;;0.10;0.10;;;25.90;99.90;;;;;;4960238;28;20184;-82
2023/10/13 11:12:26;;;;;;;0.10;0.10;;;25.70;99.90;;;;;;4962351;28;20232;-82
2023/10/13 11:15:21;;;;;;;0.10;0.10;;;25.70;99.90;;;;;;4960775;28;20275;-82
2023/10/13 11:17:54;;;;;;;0.10;0.10;;;25.60;99.90;;;;;;4960153;28;20188;-82
2023/10/13 11:20:33;;;;;;;0.10;0.10;;;25.40;99.90;;;;;;4958480;28;20185;-82
2023/10/13 11:22:59;;;;;;;0.10;0.10;;;25.50;99.90;;;;;;4957796;28;20190;-82
2023/10/13 11:25:29;;;;;;;0.10;0.10;;;25.40;99.90;;;;;;4956729;28;20209;-81
2023/10/13 11:27:56;;;;;;;0.10;0.10;;;25.50;99.90;;;;;;4973083;28;20192;-82
2023/10/13 11:33:06;;;;;;;0.10;0.10;;;25.30;99.90;;;;;;4961433;28;20212;-82
2023/10/13 11:43:35;;;;;;;0.10;0.10;;;25.80;99.90;;;;;;4961258;28;20518;-82
2023/10/13 11:48:44;;;;;;;0.10;0.10;;;26.00;99.90;;;;;;4960171;28;20187;-82
2023/10/13 11:51:17;;;;;;;0.10;0.10;;;25.50;99.90;;;;;;4960515;28;20184;-81
2023/10/13 11:53:51;;;;;;;0.10;0.10;;;25.20;99.90;;;;;;4960570;28;20213;-82
2023/10/13 11:56:20;;;;;;;0.10;0.10;;;25.00;99.90;;;;;;4973168;28;20585;-82
2023/10/13 11:58:46;;;;;;;0.00;0.00;;;24.80;99.90;;;;;;4961574;28;20313;-82
2023/10/13 12:09:41;;;;;;;0.10;0.10;;;24.40;99.90;;;;;;4965336;28;20181;-83
2023/10/13 12:12:04;;;;;;;0.10;0.10;;;24.40;99.90;;;;;;4965387;28;20274;-82
2023/10/13 12:14:37;;;;;;;0.10;0.10;;;24.30;99.90;;;;;;4963334;28;20201;-83
2023/10/13 12:17:10;;;;;;;0.10;0.10;;;24.30;99.90;;;;;;4963351;28;20212;-82
2023/10/13 12:19:38;;;;;;;0.10;0.10;;;24.30;99.90;;;;;;4963746;28;20172;-82
2023/10/13 12:22:08;;;;;;;0.10;0.10;;;24.30;99.90;;;;;;4964834;28;20176;-82
2023/10/13 12:27:35;;;;;;;0.10;0.10;;;24.30;99.90;;;;;;4964407;28;20196;-83
2023/10/13 12:30:07;;;;;;;0.10;0.10;;;24.30;99.90;;;;;;4945363;28;20220;-83
2023/10/13 12:32:34;;;;;;;0.10;0.10;;;24.30;99.90;;;;;;4961140;28;20220;-82
2023/10/13 12:35:22;;;;;;;0.10;0.10;;;24.30;99.90;;;;;;4960254;28;20296;-82
2023/10/13 12:53:55;;;;;;;0.10;0.10;;;24.70;99.90;;;;;;4961377;28;20240;-83
2023/10/13 12:56:28;;;;;;;0.10;0.10;;;24.60;99.90;;;;;;4957973;28;20271;-82
2023/10/13 12:58:54;;;;;;;0.10;0.10;;;24.70;99.90;;;;;;4959746;28;20183;-82
2023/10/13 13:01:25;;;;;;;0.10;0.10;;;24.70;99.90;;;;;;4959082;28;20193;-82
2023/10/13 13:03:55;;;;;;;0.10;0.10;;;24.80;99.90;;;;;;4958916;28;20211;-82
2023/10/13 13:06:26;;;;;;;0.10;0.10;;;24.90;99.90;;;;;;4976786;28;20223;-82
2023/10/13 13:08:56;;;;;;;0.10;0.10;;;24.90;99.90;;;;;;4960115;28;20287;-82
2023/10/13 13:11:23;;;;;;;0.10;0.10;;;24.90;99.90;;;;;;4960747;28;20181;-83
2023/10/13 13:13:49;;;;;;;0.10;0.10;;;25.00;99.90;;;;;;4960206;28;20307;-83
2023/10/13 13:16:18;;;;;;;0.10;0.10;;;25.10;99.90;;;;;;4957935;28;20308;-84
2023/10/13 13:18:47;;;;;;;0.10;0.10;;;25.30;99.90;;;;;;4973924;28;20197;-83
2023/10/13 13:21:19;;;;;;;0.10;0.10;;;25.40;99.90;;;;;;4959506;28;20255;-82
2023/10/13 13:23:45;;;;;;;0.10;0.10;;;25.60;99.90;;;;;;4960867;28;20197;-81
2023/10/13 13:26:17;;;;;;;0.10;0.10;;;25.90;99.90;;;;;;4961737;28;20258;-82
2023/10/13 13:28:50;;;;;;;0.10;0.10;;;26.20;99.90;;;;;;4962368;28;20192;-83
2023/10/13 13:31:15;;;;;;;0.07;0.07;;;26.50;99.90;;;;;;4963633;28;20191;-82
2023/10/13 13:33:44;;;;;;;0.10;0.10;;;26.70;99.90;;;;;;4964374;28;20213;-82
2023/10/13 13:36:15;;;;;;;0.10;0.10;;;26.90;99.90;;;;;;4955807;28;20775;-83
2023/10/13 13:38:41;;;;;;;0.10;0.10;;;26.90;99.90;;;;;;4958037;28;20197;-83
2023/10/13 13:41:16;;;;;;;0.10;0.10;;;27.00;99.90;;;;;;4961022;28;20252;-83
2023/10/13 13:46:19;;;;;;;0.10;0.10;;;27.10;99.90;;;;;;4959298;28;20561;-82
2023/10/13 13:48:48;;;;;;;0.10;0.10;;;27.00;99.90;;;;;;4960340;28;20193;-81
2023/10/13 13:51:19;;;;;;;0.10;0.10;;;26.90;99.90;;;;;;4958408;28;20664;-82
2023/10/13 13:53:47;;;;;;;0.10;0.10;;;27.00;99.90;;;;;;4959807;28;20681;-82
2023/10/13 13:56:16;;;;;;;0.10;0.10;;;26.80;99.90;;;;;;4960943;28;20200;-83
2023/10/13 13:58:42;;;;;;;0.10;0.10;;;26.80;99.90;;;;;;4963331;28;20180;-83
2023/10/13 14:01:25;;;;;;;0.10;0.10;;;26.70;99.90;;;;;;4960750;28;20189;-83
2023/10/13 14:03:51;;;;;;;0.10;0.10;;;26.80;99.90;;;;;;4961896;28;20286;-83
2023/10/13 14:06:26;;;;;;;0.10;0.10;;;26.60;99.90;;;;;;4959011;28;20584;-83
2023/10/13 14:08:57;;;;;;;0.10;0.10;;;26.40;99.90;;;;;;4960804;28;20187;-83
2023/10/13 14:14:12;;;;;;;0.10;0.10;;;26.20;99.90;;;;;;4963225;28;20193;-83
2023/10/13 14:16:45;;;;;;;0.10;0.10;;;26.00;99.90;;;;;;4961459;28;20180;-83
2023/10/13 14:19:11;;;;;;;0.10;0.10;;;26.20;99.90;;;;;;4962801;28;20216;-83
2023/10/13 14:21:37;;;;;;;0.10;0.10;;;26.20;99.90;;;;;;4959300;28;20239;-83
2023/10/13 14:24:12;;;;;;;0.10;0.10;;;26.30;99.90;;;;;;4959640;28;20185;-83
2023/10/13 14:26:38;;;;;;;0.10;0.10;;;26.40;99.90;;;;;;4959425;28;20188;-83
2023/10/13 14:29:07;;;;;;;0.10;0.10;;;26.40;99.90;;;;;;4958042;28;20203;-83
2023/10/13 14:31:37;;;;;;;0.10;0.10;;;26.40;99.90;;;;;;4960342;28;20224;-84
2023/10/13 14:34:03;;;;;;;0.10;0.10;;;26.30;99.90;;;;;;4957750;28;20204;-84
2023/10/13 14:36:31;;;;;;;0.10;0.10;;;26.20;99.90;;;;;;4961212;28;20173;-85
2023/10/13 14:38:57;;;;;;;0.10;0.10;;;26.30;99.90;;;;;;4964019;28;20853;-85
2023/10/13 14:41:23;;;;;;;0.10;0.10;;;26.30;99.90;;;;;;4961435;28;20217;-84
2023/10/13 14:43:48;;;;;;;0.10;0.10;;;26.30;99.90;;;;;;4962643;28;20653;-84
2023/10/13 14:46:18;;;;;;;0.10;0.10;;;26.20;99.90;;;;;;4960578;28;20196;-84
2023/10/13 14:48:44;;;;;;;0.10;0.10;;;26.20;99.90;;;;;;4960119;28;20247;-84
2023/10/13 14:51:13;;;;;;;0.10;0.10;;;26.20;99.90;;;;;;4973635;28;20680;-84
2023/10/13 14:53:45;;;;;;;0.10;0.10;;;26.20;99.90;;;;;;4960009;28;20636;-83
2023/10/13 14:56:11;;;;;;;0.10;0.10;;;26.20;99.90;;;;;;4956064;28;20272;-82
2023/10/13 14:58:42;;;;;;;0.10;0.10;;;26.10;99.90;;;;;;4960697;28;20251;-82
2023/10/13 15:01:16;;;;;;;0.10;0.10;;;26.00;99.90;;;;;;4959897;28;20176;-82
2023/10/13 15:03:58;;;;;;;0.10;0.10;;;25.80;99.90;;;;;;4961341;28;20223;-82
2023/10/13 15:06:30;;;;;;;0.10;0.10;;;25.60;99.90;;;;;;4960947;28;20205;-82
2023/10/13 15:08:59;;;;;;;0.10;0.10;;;25.40;99.90;;;;;;4959268;28;20184;-83
2023/10/13 15:11:26;;;;;;;0.10;0.10;;;25.30;99.90;;;;;;4958710;28;20312;-82
2023/10/13 15:13:53;;;;;;;0.10;0.10;;;25.10;99.90;;;;;;4957167;28;20264;-83
2023/10/13 15:16:24;;;;;;;0.10;0.10;;;25.00;99.90;;;;;;4961479;28;20620;-84
2023/10/13 15:18:52;;;;;;;0.10;0.10;;;25.00;99.90;;;;;;4955953;28;20227;-83
2023/10/13 15:21:34;;;;;;;0.10;0.10;;;25.10;99.90;;;;;;4961176;28;20252;-84
2023/10/13 15:24:03;;;;;;;0.10;0.10;;;25.00;99.90;;;;;;4959179;28;20181;-84
2023/10/13 15:26:30;;;;;;;0.10;0.10;;;25.00;99.90;;;;;;4960990;28;20223;-84
2023/10/13 15:28:55;;;;;;;0.10;0.10;;;24.90;99.90;;;;;;4960875;28;20180;-84
2023/10/13 15:34:06;;;;;;;0.10;0.10;;;24.90;99.90;;;;;;4960819;28;20204;-84
2023/10/13 15:36:33;;;;;;;0.10;0.10;;;24.80;99.90;;;;;;4958130;28;20319;-84
2023/10/13 15:38:58;;;;;;;0.10;0.10;;;24.70;99.90;;;;;;4960070;28;20189;-84
2023/10/13 15:41:26;;;;;;;0.10;0.10;;;24.70;99.90;;;;;;4958739;28;20185;-84
2023/10/13 15:43:52;;;;;;;0.10;0.10;;;24.60;99.90;;;;;;4954706;28;20185;-84
2023/10/13 15:46:21;;;;;;;0.10;0.10;;;24.60;99.90;;;;;;4958304;28;20219;-84
2023/10/13 15:48:48;;;;;;;0.10;0.10;;;24.50;99.90;;;;;;4960578;28;20208;-85
2023/10/13 15:51:14;;;;;;;0.10;0.10;;;24.40;99.90;;;;;;4959585;28;20176;-84
2023/10/13 15:53:40;;;;;;;0.10;0.10;;;24.40;99.90;;;;;;4959652;28;20768;-84
2023/10/13 15:56:11;;;;;;;0.10;0.10;;;24.30;99.90;;;;;;4962174;28;20287;-84
2023/10/13 15:58:43;;;;;;;0.10;0.10;;;24.20;99.90;;;;;;4953580;28;20193;-83
2023/10/13 16:01:12;;;;;;;0.10;0.10;;;24.20;99.90;;;;;;4951683;28;20185;-83
2023/10/13 16:03:39;;;;;;;0.10;0.10;;;24.10;99.90;;;;;;4955342;28;20243;-84
2023/10/13 16:06:09;;;;;;;0.10;0.10;;;24.00;99.90;;;;;;4953900;28;20244;-83
2023/10/13 16:08:35;;;;;;;0.10;0.10;;;24.00;99.90;;;;;;4958313;28;20283;-82
2023/10/13 16:11:08;;;;;;;0.10;0.10;;;23.90;99.90;;;;;;4960502;28;20273;-83
2023/10/13 16:13:36;;;;;;;0.10;0.10;;;23.80;99.90;;;;;;4958460;28;20212;-82
2023/10/13 16:16:05;;;;;;;0.10;0.10;;;23.80;99.90;;;;;;4960145;28;20609;-82
2023/10/13 16:18:33;;;;;;;0.10;0.10;;;23.60;99.90;;;;;;4977195;28;20185;-83
2023/10/13 16:21:04;;;;;;;0.10;0.10;;;23.60;99.90;;;;;;4958336;28;20199;-83
2023/10/13 16:23:31;;;;;;;0.10;0.10;;;23.50;99.90;;;;;;4962928;28;20277;-82
2023/10/13 16:25:59;;;;;;;0.10;0.10;;;23.40;99.90;;;;;;4957934;28;20208;-82
2023/10/13 16:28:25;;;;;;;0.10;0.10;;;23.40;99.90;;;;;;4956373;28;20698;-82
2023/10/13 16:30:53;;;;;;;0.10;0.10;;;23.30;99.90;;;;;;4957316;28;20279;-82
2023/10/13 16:33:20;;;;;;;0.10;0.10;;;23.20;99.90;;;;;;4955991;28;20209;-82
2023/10/13 16:35:45;;;;;;;0.10;0.10;;;23.10;99.90;;;;;;4957452;28;20628;-82
2023/10/13 16:38:11;;;;;;;0.10;0.10;;;23.10;99.90;;;;;;4958469;28;20180;-82
2023/10/13 16:40:39;;;;;;;0.10;0.10;;;23.10;99.90;;;;;;4957590;28;20193;-82
2023/10/13 16:43:07;;;;;;;0.10;0.10;;;23.00;99.90;;;;;;4957022;28;20188;-82
2023/10/13 16:45:44;;;;;;;0.10;0.10;;;23.00;99.90;;;;;;4958272;28;20212;-82
2023/10/13 16:48:13;;;;;;;0.10;0.10;;;22.90;99.90;;;;;;4959012;28;20239;-83
2023/10/13 16:50:43;;;;;;;0.10;0.10;;;22.90;99.90;;;;;;4959459;28;20188;-83
2023/10/13 16:53:09;;;;;;;0.10;0.10;;;22.80;99.90;;;;;;4960650;28;20593;-83
2023/10/13 16:55:36;;;;;;;0.10;0.10;;;22.80;99.90;;;;;;4959245;28;20208;-82
2023/10/13 16:58:01;;;;;;;0.10;0.10;;;22.70;99.90;;;;;;4961646;28;20191;-81
2023/10/13 17:00:27;;;;;;;0.10;0.10;;;22.70;99.90;;;;;;4959918;28;20176;-83
2023/10/13 17:02:54;;;;;;;0.10;0.10;;;22.70;99.90;;;;;;4960658;28;20212;-82
2023/10/13 17:05:19;;;;;;;0.10;0.10;;;22.70;99.90;;;;;;4963325;28;20234;-82
2023/10/13 17:07:51;;;;;;;0.10;0.10;;;22.60;99.90;;;;;;4960484;28;20257;-83
2023/10/13 17:10:16;;;;;;;0.10;0.10;;;22.50;99.90;;;;;;4963232;28;20524;-83